Time;durP1;ratioP1;P1;durP2;ratioP2;P2;SDS_P1;SDS_P2;PMS_P1;PMS_P2;Temp;Humidity;BMP_temperature;BMP_pressure;BME280_temperature;BME280_humidity;BME280_pressure;Samples;Min_cycle;Max_cycle;Signal;HPM_P1;HPM_P2
2023/07/13 00:00:32;;;;;;;11.67;6.37;;;12.30;75.50;;;;;;5006305;28;20184;-71
2023/07/13 00:02:59;;;;;;;11.50;5.90;;;12.50;74.90;;;;;;5004423;28;20184;-67
2023/07/13 00:05:27;;;;;;;12.47;6.27;;;12.50;73.80;;;;;;5009858;28;20550;-69
2023/07/13 00:07:54;;;;;;;10.10;5.80;;;12.80;73.90;;;;;;5004001;28;20188;-68
2023/07/13 00:10:23;;;;;;;9.73;5.37;;;12.90;73.00;;;;;;5006863;28;20193;-67
2023/07/13 00:12:50;;;;;;;7.00;5.27;;;13.00;72.90;;;;;;5005757;28;20186;-66
2023/07/13 00:15:23;;;;;;;11.20;5.37;;;13.20;72.60;;;;;;5006119;28;20701;-68
2023/07/13 00:17:52;;;;;;;10.00;5.10;;;13.30;71.70;;;;;;5004788;28;20185;-69
2023/07/13 00:20:24;;;;;;;8.30;5.17;;;13.50;71.50;;;;;;4999843;28;20195;-65
2023/07/13 00:22:56;;;;;;;8.33;5.43;;;13.70;70.20;;;;;;5003272;28;20189;-65
2023/07/13 00:25:26;;;;;;;9.53;4.60;;;13.60;69.30;;;;;;5005834;28;20189;-68
2023/07/13 00:27:53;;;;;;;7.37;4.23;;;13.70;69.30;;;;;;5003291;28;20232;-67
2023/07/13 00:30:21;;;;;;;7.63;4.43;;;13.80;68.60;;;;;;4999432;28;20186;-67
2023/07/13 00:32:48;;;;;;;10.13;4.03;;;13.80;68.10;;;;;;5006842;28;20287;-66
2023/07/13 00:35:16;;;;;;;6.40;4.20;;;13.80;68.20;;;;;;5007266;28;20213;-67
2023/07/13 00:37:44;;;;;;;9.87;3.87;;;14.00;67.40;;;;;;5007857;28;20197;-68
2023/07/13 00:40:16;;;;;;;8.10;3.80;;;14.00;67.40;;;;;;4995774;28;21574;-64
2023/07/13 00:42:43;;;;;;;8.50;3.20;;;14.20;66.90;;;;;;5005021;28;20652;-66
2023/07/13 00:45:13;;;;;;;5.37;3.10;;;14.30;65.50;;;;;;5008892;28;20303;-69
2023/07/13 00:47:41;;;;;;;10.20;3.50;;;14.40;66.10;;;;;;5004151;28;20185;-68
2023/07/13 00:50:12;;;;;;;6.40;3.03;;;14.60;65.60;;;;;;5005124;28;20189;-67
2023/07/13 00:52:45;;;;;;;9.40;3.30;;;14.60;65.10;;;;;;5002049;28;20181;-67
2023/07/13 00:55:13;;;;;;;5.50;3.00;;;14.80;65.00;;;;;;5007402;28;20191;-67
2023/07/13 00:57:41;;;;;;;6.70;3.10;;;14.80;64.70;;;;;;5009920;28;20591;-66
2023/07/13 01:00:10;;;;;;;6.73;2.97;;;14.90;64.10;;;;;;5006019;28;20190;-65
2023/07/13 01:02:42;;;;;;;7.30;3.47;;;14.90;63.90;;;;;;5002446;28;20276;-66
2023/07/13 01:05:18;;;;;;;7.07;4.00;;;15.00;63.70;;;;;;5010075;28;20192;-65
2023/07/13 01:07:48;;;;;;;6.53;3.20;;;15.20;63.70;;;;;;5008452;28;20181;-68
2023/07/13 01:10:16;;;;;;;6.97;2.97;;;15.30;63.50;;;;;;5008439;28;20177;-66
2023/07/13 01:12:43;;;;;;;7.17;2.63;;;15.50;62.60;;;;;;5007100;28;20190;-66
2023/07/13 01:15:39;;;;;;;9.60;3.30;;;15.60;62.00;;;;;;5009849;28;20708;-64
2023/07/13 01:18:13;;;;;;;9.90;3.53;;;15.70;62.30;;;;;;5010783;28;20182;-66
2023/07/13 01:20:41;;;;;;;5.50;3.00;;;15.80;61.30;;;;;;5008533;28;20541;-65
2023/07/13 01:23:12;;;;;;;7.07;3.17;;;15.90;61.30;;;;;;5012284;28;20781;-69
2023/07/13 01:25:40;;;;;;;6.57;3.00;;;15.90;60.20;;;;;;5007579;28;20240;-67
2023/07/13 01:28:09;;;;;;;5.10;3.17;;;15.90;61.60;;;;;;5008577;28;20234;-68
2023/07/13 01:30:39;;;;;;;8.07;2.77;;;16.10;60.90;;;;;;5007750;28;20181;-67
2023/07/13 01:33:09;;;;;;;7.87;2.90;;;16.30;60.10;;;;;;5006992;28;20197;-67
2023/07/13 01:35:37;;;;;;;6.00;2.40;;;16.50;59.70;;;;;;5002483;28;20241;-67
2023/07/13 01:38:05;;;;;;;5.80;2.50;;;16.60;59.20;;;;;;5008129;28;20238;-68
2023/07/13 01:40:33;;;;;;;7.70;2.67;;;16.70;58.20;;;;;;5009207;28;20658;-68
2023/07/13 01:43:01;;;;;;;7.40;2.60;;;16.80;57.20;;;;;;4989496;28;20261;-68
2023/07/13 01:45:28;;;;;;;5.80;2.90;;;16.70;56.90;;;;;;5006258;28;20604;-68
2023/07/13 01:47:55;;;;;;;5.37;2.53;;;17.10;56.60;;;;;;5005130;28;20175;-67
2023/07/13 01:50:23;;;;;;;4.07;2.20;;;17.20;55.70;;;;;;5002413;28;20241;-69
2023/07/13 01:52:50;;;;;;;4.07;2.30;;;17.30;54.20;;;;;;5007609;28;20252;-65
2023/07/13 01:55:18;;;;;;;5.53;2.30;;;17.60;52.60;;;;;;5005885;28;20221;-64
2023/07/13 01:57:46;;;;;;;4.23;2.37;;;17.60;51.30;;;;;;5007824;28;20243;-66
2023/07/13 02:00:15;;;;;;;3.70;2.00;;;17.70;51.50;;;;;;5005761;28;20208;-66
2023/07/13 02:02:42;;;;;;;8.83;2.10;;;17.80;51.00;;;;;;5009608;28;20224;-68
2023/07/13 02:05:10;;;;;;;4.07;1.53;;;17.80;50.80;;;;;;5006529;28;20682;-68
2023/07/13 02:07:38;;;;;;;5.10;2.03;;;17.80;49.10;;;;;;5008170;28;20324;-66
2023/07/13 02:10:07;;;;;;;3.27;2.10;;;17.80;49.80;;;;;;5006050;28;20217;-64
2023/07/13 02:12:36;;;;;;;1.93;1.53;;;17.90;50.30;;;;;;5009723;28;20196;-68
2023/07/13 02:15:05;;;;;;;3.13;1.90;;;18.30;49.00;;;;;;5005260;28;20567;-65
2023/07/13 02:17:32;;;;;;;4.77;1.70;;;18.40;48.90;;;;;;5008293;28;20185;-66
2023/07/13 02:20:00;;;;;;;3.10;1.97;;;18.40;48.10;;;;;;5005898;28;20197;-69
2023/07/13 02:22:27;;;;;;;3.67;1.70;;;18.50;48.30;;;;;;5010421;28;20185;-65
2023/07/13 02:24:55;;;;;;;2.63;1.70;;;18.60;47.40;;;;;;4993423;28;20189;-71
2023/07/13 02:27:22;;;;;;;2.43;1.63;;;18.70;47.00;;;;;;5007216;28;20181;-65
2023/07/13 02:29:51;;;;;;;3.60;1.87;;;18.60;47.20;;;;;;5003950;28;20235;-69
2023/07/13 02:32:19;;;;;;;3.80;2.00;;;18.70;47.00;;;;;;5008480;28;20244;-69
2023/07/13 02:34:47;;;;;;;4.57;1.73;;;18.50;47.60;;;;;;5003724;28;20181;-66
2023/07/13 02:37:14;;;;;;;4.73;1.90;;;18.80;47.30;;;;;;5004275;28;20233;-65
2023/07/13 02:39:41;;;;;;;3.90;2.00;;;19.20;47.20;;;;;;4976906;28;20224;-69
2023/07/13 02:42:09;;;;;;;7.00;1.70;;;19.20;46.70;;;;;;4999027;28;20203;-67
2023/07/13 02:44:36;;;;;;;4.80;1.90;;;19.20;47.10;;;;;;5011898;28;20185;-65
2023/07/13 02:47:04;;;;;;;5.40;1.83;;;19.20;46.20;;;;;;4996712;28;20189;-68
2023/07/13 02:49:31;;;;;;;3.97;1.70;;;19.30;45.60;;;;;;4988533;28;20268;-67
2023/07/13 02:51:59;;;;;;;4.60;1.87;;;19.30;46.00;;;;;;5007452;28;20243;-67
2023/07/13 02:54:26;;;;;;;3.17;1.90;;;19.30;45.50;;;;;;4993650;28;20530;-68
2023/07/13 02:56:54;;;;;;;5.40;1.83;;;19.50;46.20;;;;;;5009164;28;20228;-68
2023/07/13 02:59:21;;;;;;;4.00;1.53;;;19.60;44.90;;;;;;5008622;28;20876;-67
2023/07/13 03:01:49;;;;;;;3.63;1.70;;;19.60;44.50;;;;;;5005992;28;20239;-64
2023/07/13 03:04:19;;;;;;;3.13;2.07;;;19.50;45.00;;;;;;5004514;28;20197;-66
2023/07/13 03:06:47;;;;;;;2.97;1.87;;;19.60;45.10;;;;;;5006980;28;20239;-67
2023/07/13 03:09:14;;;;;;;4.93;1.90;;;19.60;45.30;;;;;;4991580;28;20593;-67
2023/07/13 03:11:41;;;;;;;4.30;1.87;;;19.80;44.60;;;;;;5011229;28;20200;-67
2023/07/13 03:14:09;;;;;;;4.63;2.60;;;19.70;44.00;;;;;;5004615;28;20194;-66
2023/07/13 03:16:37;;;;;;;4.60;1.67;;;19.70;44.60;;;;;;5009701;28;20224;-68
2023/07/13 03:19:04;;;;;;;3.97;1.80;;;19.80;45.00;;;;;;5004774;28;20199;-68
2023/07/13 03:21:32;;;;;;;3.97;2.20;;;20.20;43.80;;;;;;5009748;28;20782;-66
2023/07/13 03:23:59;;;;;;;6.93;2.20;;;20.30;43.40;;;;;;4991161;28;20177;-66
2023/07/13 03:26:28;;;;;;;4.30;1.70;;;20.40;43.40;;;;;;5006319;28;20181;-65
2023/07/13 03:28:56;;;;;;;6.20;2.20;;;20.30;42.90;;;;;;5005776;28;20321;-68
2023/07/13 03:31:29;;;;;;;3.60;2.10;;;20.30;43.10;;;;;;5009218;28;20292;-66
2023/07/13 03:33:57;;;;;;;3.37;1.73;;;20.50;42.90;;;;;;5006597;28;20182;-68
2023/07/13 03:36:27;;;;;;;7.83;2.33;;;20.80;42.40;;;;;;5008079;28;20249;-67
2023/07/13 03:38:58;;;;;;;4.23;1.83;;;21.00;42.10;;;;;;5006484;28;20192;-68
2023/07/13 03:41:27;;;;;;;5.53;1.67;;;21.30;41.20;;;;;;5010978;28;20181;-65
2023/07/13 03:43:54;;;;;;;4.60;1.93;;;21.70;40.80;;;;;;5008113;28;20189;-67
2023/07/13 03:46:22;;;;;;;6.07;2.17;;;21.30;40.90;;;;;;5003271;28;20545;-66
2023/07/13 03:48:49;;;;;;;5.17;1.70;;;21.70;40.10;;;;;;5008743;28;20215;-66
2023/07/13 03:51:18;;;;;;;4.07;2.03;;;21.70;39.50;;;;;;5008911;28;20308;-65
2023/07/13 03:53:47;;;;;;;4.47;2.00;;;21.80;39.50;;;;;;5009764;28;20521;-66
2023/07/13 03:56:16;;;;;;;4.57;2.20;;;22.20;38.60;;;;;;5009129;28;20231;-66
2023/07/13 03:58:45;;;;;;;3.30;1.80;;;21.80;38.70;;;;;;5014682;28;20774;-67
2023/07/13 04:01:14;;;;;;;3.93;1.70;;;22.30;37.40;;;;;;5009382;28;20569;-66
2023/07/13 04:03:42;;;;;;;6.83;1.90;;;22.60;36.80;;;;;;5009248;28;20200;-64
2023/07/13 04:06:21;;;;;;;5.87;1.73;;;22.80;35.90;;;;;;5007680;28;20189;-65
2023/07/13 04:08:50;;;;;;;4.73;1.50;;;22.90;36.30;;;;;;5007168;28;20184;-68
2023/07/13 04:11:20;;;;;;;2.53;1.40;;;23.40;35.30;;;;;;5006099;28;20173;-67
2023/07/13 04:13:48;;;;;;;6.20;1.43;;;23.20;35.90;;;;;;5004214;28;20200;-66
2023/07/13 04:16:17;;;;;;;4.83;1.43;;;23.80;33.80;;;;;;5003282;28;20246;-69
2023/07/13 04:18:46;;;;;;;2.70;1.20;;;23.10;34.00;;;;;;5007833;28;20186;-71
2023/07/13 04:21:14;;;;;;;4.87;1.27;;;23.60;32.90;;;;;;5004085;28;20601;-66
2023/07/13 04:23:42;;;;;;;5.43;1.43;;;23.90;32.40;;;;;;5006089;28;20290;-66
2023/07/13 04:26:09;;;;;;;4.70;1.40;;;24.30;32.20;;;;;;5005738;28;20189;-65
2023/07/13 04:28:37;;;;;;;3.43;1.33;;;24.40;32.20;;;;;;5007226;28;20173;-67
2023/07/13 04:31:05;;;;;;;3.20;1.23;;;24.50;31.50;;;;;;5004356;28;20283;-68
2023/07/13 04:33:33;;;;;;;5.20;1.60;;;23.50;33.10;;;;;;5005606;28;20578;-67
2023/07/13 04:36:01;;;;;;;3.27;1.40;;;23.60;33.00;;;;;;5006084;28;20923;-67
2023/07/13 04:38:31;;;;;;;2.60;1.50;;;24.00;32.80;;;;;;5006497;28;20639;-67
2023/07/13 04:41:06;;;;;;;2.83;1.50;;;24.10;33.50;;;;;;5004821;28;20195;-66
2023/07/13 04:43:34;;;;;;;2.83;1.27;;;23.90;33.20;;;;;;5014421;28;20180;-70
2023/07/13 04:46:14;;;;;;;3.70;1.60;;;24.50;31.60;;;;;;4999262;28;20189;-66
2023/07/13 04:48:41;;;;;;;2.80;1.70;;;24.40;32.30;;;;;;5003510;28;20188;-67
2023/07/13 04:51:09;;;;;;;4.63;1.40;;;24.50;32.10;;;;;;5006874;28;20276;-65
2023/07/13 04:53:37;;;;;;;4.13;1.53;;;24.50;31.90;;;;;;5005450;28;20216;-66
2023/07/13 04:56:05;;;;;;;4.83;1.20;;;24.70;31.10;;;;;;5005004;28;20671;-69
2023/07/13 04:58:33;;;;;;;4.13;1.43;;;24.60;31.90;;;;;;5002078;28;20207;-65
2023/07/13 05:01:03;;;;;;;3.53;1.10;;;24.90;30.60;;;;;;5006889;28;20193;-67
2023/07/13 05:03:31;;;;;;;4.97;1.10;;;25.30;29.60;;;;;;5002237;28;20572;-68
2023/07/13 05:06:02;;;;;;;5.33;1.27;;;25.20;30.10;;;;;;5003182;28;20185;-65
2023/07/13 05:08:29;;;;;;;2.03;1.20;;;24.90;30.40;;;;;;5005338;28;20231;-69
2023/07/13 05:10:57;;;;;;;1.40;1.00;;;24.40;30.60;;;;;;5003769;28;20193;-70
2023/07/13 05:13:24;;;;;;;1.90;1.40;;;24.40;30.70;;;;;;5005595;28;20535;-69
2023/07/13 05:16:03;;;;;;;2.20;1.20;;;24.60;30.60;;;;;;5006685;28;20221;-68
2023/07/13 05:18:32;;;;;;;5.07;1.40;;;24.60;30.60;;;;;;5006248;28;20652;-67
2023/07/13 05:21:05;;;;;;;1.70;1.10;;;24.10;31.00;;;;;;5005156;28;20268;-66
2023/07/13 05:23:34;;;;;;;4.17;1.30;;;24.60;29.80;;;;;;5005228;28;20181;-66
2023/07/13 05:26:02;;;;;;;4.00;1.53;;;24.90;30.00;;;;;;5005657;28;20185;-68
2023/07/13 05:28:32;;;;;;;3.53;1.10;;;24.80;30.70;;;;;;4995530;28;20182;-68
2023/07/13 05:31:00;;;;;;;4.40;1.40;;;24.70;30.50;;;;;;5002862;28;20185;-65
2023/07/13 05:33:28;;;;;;;2.77;1.30;;;24.80;30.90;;;;;;5005903;28;20209;-64
2023/07/13 05:35:55;;;;;;;3.07;1.00;;;25.00;30.50;;;;;;4990762;28;20225;-65
2023/07/13 05:38:23;;;;;;;3.33;1.43;;;25.20;29.20;;;;;;5006270;28;20283;-69
2023/07/13 05:40:51;;;;;;;6.63;1.80;;;25.50;29.40;;;;;;5004950;28;20191;-66
2023/07/13 05:43:19;;;;;;;4.53;1.60;;;24.70;31.20;;;;;;4990051;28;20177;-65
2023/07/13 05:45:46;;;;;;;5.80;1.83;;;24.70;31.80;;;;;;5004958;28;20212;-64
2023/07/13 05:48:14;;;;;;;4.27;1.83;;;24.10;33.90;;;;;;5005336;28;20269;-65
2023/07/13 05:50:41;;;;;;;5.87;2.03;;;23.80;35.50;;;;;;5003282;28;20194;-64
2023/07/13 05:53:09;;;;;;;6.47;1.67;;;23.90;36.00;;;;;;5008696;28;20602;-66
2023/07/13 05:55:58;;;;;;;6.00;2.40;;;23.80;36.60;;;;;;5007965;28;20675;-64
2023/07/13 05:58:25;;;;;;;6.00;2.37;;;23.50;37.50;;;;;;5015651;28;20221;-65
2023/07/13 06:01:07;;;;;;;11.10;2.83;;;23.50;38.10;;;;;;5009199;28;21388;-65
2023/07/13 06:03:34;;;;;;;4.53;3.10;;;23.30;39.20;;;;;;5008869;28;20272;-67
2023/07/13 06:06:02;;;;;;;10.60;2.53;;;23.20;39.20;;;;;;5007311;28;20193;-66
2023/07/13 06:08:29;;;;;;;9.13;2.40;;;23.20;40.10;;;;;;5004996;28;20209;-67
2023/07/13 06:11:15;;;;;;;8.43;2.33;;;23.10;40.60;;;;;;5007721;28;20208;-65
2023/07/13 06:13:42;;;;;;;6.57;2.50;;;22.00;43.40;;;;;;4995085;28;20651;-67
2023/07/13 06:16:10;;;;;;;10.07;2.77;;;21.50;45.10;;;;;;5008424;28;20680;-65
2023/07/13 06:18:38;;;;;;;14.90;2.57;;;20.80;47.20;;;;;;5005438;28;20189;-65
2023/07/13 06:21:16;;;;;;;10.13;2.27;;;20.40;48.60;;;;;;5009195;28;20651;-65
2023/07/13 06:23:44;;;;;;;8.70;2.63;;;20.30;49.20;;;;;;5002480;28;20628;-66
2023/07/13 06:26:12;;;;;;;7.33;2.70;;;20.00;50.60;;;;;;5004698;28;20191;-68
2023/07/13 06:28:42;;;;;;;7.87;2.67;;;19.90;50.90;;;;;;5005182;28;20242;-65
2023/07/13 06:31:12;;;;;;;7.33;2.10;;;19.60;52.40;;;;;;5003815;28;20225;-68
2023/07/13 06:33:39;;;;;;;6.93;2.90;;;19.20;53.70;;;;;;5007335;28;20624;-66
2023/07/13 06:36:08;;;;;;;5.20;2.47;;;19.00;54.80;;;;;;5006068;28;20229;-65
2023/07/13 06:38:36;;;;;;;5.13;2.70;;;18.80;55.70;;;;;;5007803;28;20185;-66
2023/07/13 06:41:04;;;;;;;8.13;2.20;;;18.60;56.40;;;;;;5008547;28;20272;-66
2023/07/13 06:43:32;;;;;;;4.30;2.50;;;18.50;57.10;;;;;;4986543;28;20667;-68
2023/07/13 06:45:59;;;;;;;5.50;2.60;;;18.40;57.60;;;;;;4993050;28;20204;-66
2023/07/13 06:48:28;;;;;;;6.03;2.10;;;18.30;57.80;;;;;;5007231;28;20177;-65
2023/07/13 06:50:55;;;;;;;6.47;2.20;;;18.30;57.80;;;;;;5005816;28;20188;-69
2023/07/13 06:53:23;;;;;;;3.60;1.63;;;18.20;58.30;;;;;;4999794;28;20293;-64
2023/07/13 06:55:51;;;;;;;8.27;2.63;;;18.00;58.70;;;;;;5004427;28;20245;-66
2023/07/13 06:58:19;;;;;;;5.07;2.07;;;17.90;59.00;;;;;;5003649;28;20560;-64
2023/07/13 07:00:50;;;;;;;6.67;2.17;;;17.80;59.40;;;;;;5006001;28;20640;-66
2023/07/13 07:03:18;;;;;;;10.77;2.40;;;17.80;59.60;;;;;;5005437;28;20555;-67
2023/07/13 07:05:45;;;;;;;7.37;2.10;;;17.70;60.40;;;;;;5004962;28;20196;-65
2023/07/13 07:08:13;;;;;;;12.83;2.33;;;17.70;60.60;;;;;;5007292;28;20178;-65
2023/07/13 07:10:42;;;;;;;8.53;2.37;;;17.60;60.40;;;;;;5007237;28;20197;-65
2023/07/13 07:13:09;;;;;;;10.60;2.37;;;17.40;61.10;;;;;;5002665;28;20243;-66
2023/07/13 07:15:37;;;;;;;9.63;2.50;;;17.30;61.60;;;;;;5004677;28;20295;-65
2023/07/13 07:18:05;;;;;;;10.73;2.77;;;17.30;62.20;;;;;;5003702;28;20194;-66
2023/07/13 07:20:32;;;;;;;12.43;2.80;;;17.10;62.70;;;;;;4988961;28;20694;-65
2023/07/13 07:23:00;;;;;;;11.53;2.90;;;17.00;62.70;;;;;;5008791;28;20188;-64
2023/07/13 07:25:31;;;;;;;12.00;3.97;;;16.90;63.00;;;;;;5004480;28;20201;-64
2023/07/13 07:27:59;;;;;;;6.67;3.30;;;16.80;63.10;;;;;;5006295;28;20207;-64
2023/07/13 07:30:27;;;;;;;12.93;3.70;;;16.70;63.50;;;;;;5006651;28;20188;-64
2023/07/13 07:32:54;;;;;;;9.23;3.30;;;16.70;63.10;;;;;;5005931;28;20270;-66
2023/07/13 07:35:21;;;;;;;17.57;3.00;;;16.70;63.20;;;;;;5004903;28;20237;-65
2023/07/13 07:37:49;;;;;;;6.47;3.43;;;16.70;62.70;;;;;;5005159;28;20233;-65
2023/07/13 07:40:16;;;;;;;7.20;3.00;;;16.60;62.40;;;;;;5007067;28;20287;-64
2023/07/13 07:42:46;;;;;;;10.80;3.20;;;16.50;62.30;;;;;;5004285;28;20217;-65
2023/07/13 07:45:14;;;;;;;14.60;3.30;;;16.50;62.60;;;;;;5003290;28;20238;-67
2023/07/13 07:47:42;;;;;;;11.43;3.37;;;16.50;62.90;;;;;;5001720;28;20215;-66
2023/07/13 07:50:10;;;;;;;10.47;3.40;;;16.40;63.60;;;;;;5005133;28;20196;-66
2023/07/13 07:52:37;;;;;;;5.90;2.53;;;16.30;63.80;;;;;;5003365;28;20663;-65
2023/07/13 07:55:06;;;;;;;5.17;2.53;;;16.30;65.20;;;;;;5006443;28;20196;-65
2023/07/13 07:57:34;;;;;;;6.53;2.00;;;16.30;66.10;;;;;;5005908;28;20230;-66
2023/07/13 08:00:01;;;;;;;7.10;2.53;;;16.30;67.20;;;;;;5003303;28;20187;-63
2023/07/13 08:02:29;;;;;;;5.10;2.67;;;16.30;67.60;;;;;;5005696;28;20191;-64
2023/07/13 08:04:56;;;;;;;6.27;2.90;;;16.30;68.10;;;;;;5003548;28;20195;-65
2023/07/13 08:07:23;;;;;;;3.07;2.53;;;16.30;68.80;;;;;;5004081;28;20184;-69
2023/07/13 08:09:53;;;;;;;7.00;3.00;;;16.20;69.70;;;;;;5006499;28;20196;-69
2023/07/13 08:12:21;;;;;;;8.23;3.27;;;16.20;70.00;;;;;;5005943;28;20271;-68
2023/07/13 08:14:57;;;;;;;7.77;4.10;;;16.20;70.60;;;;;;4998901;28;20186;-66
2023/07/13 08:17:25;;;;;;;7.63;3.70;;;16.10;70.90;;;;;;5003563;28;20669;-65
2023/07/13 08:19:52;;;;;;;6.07;3.63;;;16.10;70.90;;;;;;5006001;28;20286;-65
2023/07/13 08:22:20;;;;;;;8.53;3.07;;;16.00;71.30;;;;;;5003805;28;20232;-65
2023/07/13 08:24:55;;;;;;;6.90;3.27;;;16.00;71.10;;;;;;5006135;28;20185;-66
2023/07/13 08:27:26;;;;;;;7.47;3.03;;;16.00;71.30;;;;;;4998354;28;20709;-65
2023/07/13 08:29:54;;;;;;;8.17;2.97;;;15.90;71.50;;;;;;5004617;28;20181;-65
2023/07/13 08:32:23;;;;;;;9.70;3.43;;;15.80;71.60;;;;;;5005406;28;20185;-65
2023/07/13 08:34:51;;;;;;;5.20;3.17;;;15.80;71.80;;;;;;5006890;28;20524;-68
2023/07/13 08:37:19;;;;;;;5.53;3.30;;;15.80;72.10;;;;;;5009005;28;20286;-66
2023/07/13 08:39:47;;;;;;;12.07;3.07;;;15.70;72.20;;;;;;4992269;28;20703;-64
2023/07/13 08:42:32;;;;;;;10.73;3.30;;;15.70;72.50;;;;;;5000899;28;20670;-65
2023/07/13 08:45:27;;;;;;;9.27;2.70;;;15.70;72.80;;;;;;4997683;28;20279;-65
2023/07/13 08:48:18;;;;;;;8.57;2.90;;;15.60;72.50;;;;;;5003784;28;20246;-63
2023/07/13 08:50:59;;;;;;;6.00;3.60;;;15.50;73.00;;;;;;5000487;28;20200;-64
2023/07/13 08:53:34;;;;;;;12.30;4.53;;;15.30;72.90;;;;;;5005035;28;20222;-66
2023/07/13 08:56:01;;;;;;;7.87;4.47;;;15.20;73.10;;;;;;5006929;28;20207;-64
2023/07/13 08:58:30;;;;;;;7.33;4.43;;;15.00;73.50;;;;;;5003078;28;20194;-66
2023/07/13 09:01:10;;;;;;;8.63;4.50;;;14.90;73.80;;;;;;5006572;28;20264;-65
2023/07/13 09:03:58;;;;;;;12.70;4.80;;;14.90;74.20;;;;;;5004173;28;20190;-65
2023/07/13 09:06:50;;;;;;;6.33;4.13;;;14.80;74.40;;;;;;5003857;28;20254;-66
2023/07/13 09:09:41;;;;;;;10.37;4.30;;;14.80;74.80;;;;;;4994185;28;20193;-66
2023/07/13 09:12:22;;;;;;;12.27;4.23;;;14.80;74.90;;;;;;5006292;28;20201;-63
2023/07/13 09:14:53;;;;;;;8.73;4.40;;;14.70;75.20;;;;;;5003906;28;20220;-64
2023/07/13 09:17:51;;;;;;;12.23;4.50;;;14.80;75.60;;;;;;4999002;28;20660;-67
2023/07/13 09:20:35;;;;;;;8.83;4.50;;;14.70;75.70;;;;;;4994691;28;20188;-64
2023/07/13 09:23:07;;;;;;;10.87;5.00;;;14.70;76.00;;;;;;5001830;28;20216;-66
2023/07/13 09:25:36;;;;;;;13.77;5.13;;;14.60;76.00;;;;;;5003344;28;20204;-67
2023/07/13 09:28:23;;;;;;;9.70;4.90;;;14.60;76.40;;;;;;4991752;28;20193;-65
2023/07/13 09:31:16;;;;;;;11.60;6.70;;;14.60;76.60;;;;;;5010034;28;20185;-67
2023/07/13 09:33:45;;;;;;;7.93;5.10;;;14.50;76.40;;;;;;4981207;28;20199;-67
2023/07/13 09:36:22;;;;;;;10.43;6.27;;;14.40;76.30;;;;;;5007411;28;20711;-65
2023/07/13 09:38:56;;;;;;;15.70;6.93;;;14.30;76.60;;;;;;5008475;28;20545;-68
2023/07/13 09:41:48;;;;;;;17.83;6.60;;;14.30;76.90;;;;;;5009901;28;20241;-65
2023/07/13 09:44:18;;;;;;;11.60;6.50;;;14.20;76.90;;;;;;5002820;28;20643;-64
2023/07/13 09:46:52;;;;;;;20.30;6.80;;;14.20;77.10;;;;;;5006354;28;20293;-66
2023/07/13 09:49:23;;;;;;;14.53;6.33;;;14.10;77.30;;;;;;5009082;28;20203;-68
2023/07/13 09:52:05;;;;;;;12.00;6.20;;;14.00;77.20;;;;;;4999610;28;20188;-71
2023/07/13 09:54:36;;;;;;;16.47;6.93;;;14.00;77.40;;;;;;5006234;28;20251;-67
2023/07/13 09:57:11;;;;;;;10.53;6.37;;;13.90;77.60;;;;;;5005029;28;20201;-64
2023/07/13 09:59:46;;;;;;;13.93;6.37;;;13.80;77.70;;;;;;5005151;28;20175;-67
2023/07/13 10:02:35;;;;;;;12.87;6.40;;;13.80;78.00;;;;;;5005035;28;20181;-66
2023/07/13 10:05:22;;;;;;;20.10;8.63;;;13.80;78.30;;;;;;5010130;28;20189;-66
2023/07/13 10:07:49;;;;;;;15.13;7.40;;;13.80;78.60;;;;;;5006384;28;20181;-66
2023/07/13 10:10:21;;;;;;;10.73;6.43;;;13.70;78.60;;;;;;5009711;28;20734;-69
2023/07/13 10:12:50;;;;;;;9.53;4.60;;;13.70;78.40;;;;;;5012792;28;20545;-64
2023/07/13 10:15:25;;;;;;;9.27;4.33;;;13.70;78.40;;;;;;5011754;28;20307;-68
2023/07/13 10:17:58;;;;;;;7.50;4.70;;;13.70;78.20;;;;;;5004714;28;20209;-64
2023/07/13 10:20:26;;;;;;;11.27;4.57;;;13.60;77.90;;;;;;5009578;28;20192;-69
2023/07/13 10:23:16;;;;;;;6.93;3.77;;;13.60;77.90;;;;;;5005758;28;20197;-65
2023/07/13 10:25:46;;;;;;;5.90;3.73;;;13.50;77.80;;;;;;5004199;28;20546;-70
2023/07/13 10:28:36;;;;;;;7.23;4.50;;;13.50;78.00;;;;;;5003892;28;20537;-68
2023/07/13 10:31:05;;;;;;;7.93;4.30;;;13.50;77.90;;;;;;5010032;28;20197;-64
2023/07/13 10:33:33;;;;;;;8.00;3.57;;;13.50;77.60;;;;;;5001508;28;20186;-66
2023/07/13 10:36:39;;;;;;;6.60;3.67;;;13.40;77.60;;;;;;5006148;28;20646;-65
2023/07/13 10:39:07;;;;;;;6.50;3.83;;;13.40;77.30;;;;;;4992951;28;20201;-65
2023/07/13 10:41:42;;;;;;;8.20;4.00;;;13.30;77.30;;;;;;4999424;28;20185;-65
2023/07/13 10:44:19;;;;;;;8.07;4.40;;;13.30;77.30;;;;;;5011703;28;20219;-65
2023/07/13 10:46:48;;;;;;;5.60;4.07;;;13.30;77.40;;;;;;5005600;28;20209;-65
2023/07/13 10:49:16;;;;;;;6.60;4.43;;;13.20;77.20;;;;;;5005114;28;20651;-64
2023/07/13 10:51:43;;;;;;;9.53;4.40;;;13.20;77.20;;;;;;5006664;28;20229;-66
2023/07/13 10:54:26;;;;;;;5.70;4.00;;;13.20;77.40;;;;;;5008315;28;20225;-68
2023/07/13 10:57:17;;;;;;;6.33;3.90;;;13.10;77.20;;;;;;5006461;28;20227;-67
2023/07/13 11:00:08;;;;;;;6.73;3.60;;;13.10;77.20;;;;;;5006340;28;20282;-67
2023/07/13 11:02:35;;;;;;;5.60;3.80;;;13.00;77.20;;;;;;4997980;28;20209;-65
2023/07/13 11:05:27;;;;;;;7.87;4.53;;;13.00;76.90;;;;;;5009461;28;20181;-65
2023/07/13 11:08:20;;;;;;;11.70;4.00;;;12.90;77.00;;;;;;5005031;28;20267;-64
2023/07/13 11:10:49;;;;;;;4.47;3.53;;;12.80;77.30;;;;;;5008043;28;20271;-65
2023/07/13 11:13:43;;;;;;;5.93;3.97;;;12.80;77.60;;;;;;5003250;28;20193;-67
2023/07/13 11:16:25;;;;;;;9.03;3.67;;;12.80;77.40;;;;;;5007288;28;20209;-67
2023/07/13 11:19:13;;;;;;;5.53;3.93;;;12.80;77.50;;;;;;5005235;28;20248;-65
2023/07/13 11:22:08;;;;;;;11.13;4.47;;;12.70;77.80;;;;;;5007754;28;20185;-70
2023/07/13 11:24:58;;;;;;;8.30;4.70;;;12.70;78.20;;;;;;5003481;28;20565;-69
2023/07/13 11:27:45;;;;;;;8.50;3.70;;;12.60;78.20;;;;;;5007718;28;20288;-68
2023/07/13 11:30:30;;;;;;;9.87;4.80;;;12.60;78.50;;;;;;5004577;28;20663;-67
2023/07/13 11:33:38;;;;;;;9.87;4.67;;;12.60;78.50;;;;;;4998666;28;20193;-68
2023/07/13 11:36:16;;;;;;;7.67;4.00;;;12.50;78.30;;;;;;4999454;28;20224;-67
2023/07/13 11:38:47;;;;;;;7.93;4.50;;;12.60;78.40;;;;;;5006203;28;20235;-66
2023/07/13 11:41:25;;;;;;;10.70;4.83;;;12.50;78.20;;;;;;5008514;28;20189;-65
2023/07/13 11:43:56;;;;;;;13.63;4.70;;;12.50;78.20;;;;;;5005928;28;20655;-65
2023/07/13 11:46:26;;;;;;;14.40;5.10;;;12.50;78.30;;;;;;5007351;28;20193;-65
2023/07/13 11:48:54;;;;;;;9.23;5.13;;;12.40;78.20;;;;;;4999995;28;20232;-67
2023/07/13 11:51:37;;;;;;;11.63;5.53;;;12.30;78.20;;;;;;5008250;28;20308;-67
2023/07/13 11:54:29;;;;;;;8.67;4.90;;;12.30;78.10;;;;;;5006888;28;20188;-66
2023/07/13 11:57:24;;;;;;;10.03;5.83;;;12.30;77.80;;;;;;5007628;28;20758;-66
2023/07/13 11:59:53;;;;;;;14.07;6.00;;;12.30;77.90;;;;;;5002861;28;20251;-64
2023/07/13 12:02:29;;;;;;;12.87;5.50;;;12.30;77.90;;;;;;5007233;28;20182;-66
2023/07/13 12:04:56;;;;;;;15.23;5.83;;;12.30;78.10;;;;;;5004193;28;20255;-65
2023/07/13 12:07:24;;;;;;;14.73;5.70;;;12.30;77.60;;;;;;5009532;28;20177;-66
2023/07/13 12:09:51;;;;;;;17.90;6.37;;;12.20;77.40;;;;;;5000795;28;20188;-67
2023/07/13 12:12:22;;;;;;;12.30;6.37;;;12.20;77.60;;;;;;5002573;28;20178;-65
2023/07/13 12:14:54;;;;;;;12.23;5.83;;;12.10;77.50;;;;;;5004247;28;20177;-68
2023/07/13 12:17:24;;;;;;;18.93;5.97;;;12.10;77.90;;;;;;5000289;28;20225;-67
2023/07/13 12:19:53;;;;;;;12.83;6.20;;;12.10;77.70;;;;;;5004315;28;20694;-68
2023/07/13 12:22:22;;;;;;;16.80;6.80;;;12.00;77.70;;;;;;5005198;28;20192;-69
2023/07/13 12:24:51;;;;;;;15.43;7.13;;;12.00;77.90;;;;;;5004727;28;20193;-67
2023/07/13 12:27:28;;;;;;;15.50;6.47;;;12.00;78.00;;;;;;5005090;28;20177;-67
2023/07/13 12:30:05;;;;;;;13.00;7.07;;;11.90;78.30;;;;;;5007542;28;20758;-66
2023/07/13 12:32:32;;;;;;;20.40;7.27;;;11.90;78.20;;;;;;5000500;28;20269;-66
2023/07/13 12:35:18;;;;;;;22.17;7.80;;;11.80;77.90;;;;;;5002219;28;20193;-71
2023/07/13 12:37:47;;;;;;;15.87;6.73;;;11.90;78.40;;;;;;4979395;28;20245;-67
2023/07/13 12:40:22;;;;;;;17.47;6.50;;;11.80;78.40;;;;;;4984885;28;20186;-69
2023/07/13 12:42:51;;;;;;;11.33;6.20;;;11.80;78.80;;;;;;4986434;28;20260;-68
2023/07/13 12:45:25;;;;;;;21.80;7.07;;;11.80;78.90;;;;;;4985349;28;20641;-68
2023/07/13 12:47:59;;;;;;;15.60;6.00;;;11.70;78.90;;;;;;4981892;28;20186;-67
2023/07/13 12:50:36;;;;;;;10.60;6.10;;;11.80;79.10;;;;;;4984189;28;20178;-64
2023/07/13 12:53:09;;;;;;;17.77;6.97;;;11.70;79.20;;;;;;4982030;28;20272;-67
2023/07/13 12:55:50;;;;;;;15.73;7.83;;;11.80;79.10;;;;;;4986414;28;20269;-66
2023/07/13 12:58:26;;;;;;;14.70;6.97;;;11.80;79.30;;;;;;4982080;28;20209;-66
2023/07/13 13:00:57;;;;;;;16.77;7.53;;;11.80;79.40;;;;;;4985908;28;20184;-67
2023/07/13 13:03:39;;;;;;;16.80;6.67;;;11.80;79.30;;;;;;4988247;28;20197;-68
2023/07/13 13:06:18;;;;;;;15.00;6.63;;;11.80;79.20;;;;;;4991733;28;20189;-64